sensor_id;sensor_type;location;lat;lon;timestamp;temperature;humidity
20297;DHT22;10307;40.100;18.336;2022-11-20T00:01:08;19.60;99.90
20297;DHT22;10307;40.100;18.336;2022-11-20T00:03:35;19.70;99.90
20297;DHT22;10307;40.100;18.336;2022-11-20T00:06:03;19.70;99.90
20297;DHT22;10307;40.100;18.336;2022-11-20T00:08:30;19.70;99.90
20297;DHT22;10307;40.100;18.336;2022-11-20T00:10:56;19.70;99.90
20297;DHT22;10307;40.100;18.336;2022-11-20T00:13:23;19.60;99.90
20297;DHT22;10307;40.100;18.336;2022-11-20T00:15:56;19.60;99.90
20297;DHT22;10307;40.100;18.336;2022-11-20T00:18:22;19.60;99.90
20297;DHT22;10307;40.100;18.336;2022-11-20T00:20:48;19.60;99.90
20297;DHT22;10307;40.100;18.336;2022-11-20T00:23:14;19.60;99.90
20297;DHT22;10307;40.100;18.336;2022-11-20T00:25:40;19.60;99.90
20297;DHT22;10307;40.100;18.336;2022-11-20T00:28:07;19.60;99.90
20297;DHT22;10307;40.100;18.336;2022-11-20T00:30:33;19.60;99.90
20297;DHT22;10307;40.100;18.336;2022-11-20T00:32:59;19.60;99.90
20297;DHT22;10307;40.100;18.336;2022-11-20T00:35:25;19.60;99.90
20297;DHT22;10307;40.100;18.336;2022-11-20T00:37:52;19.60;99.90
20297;DHT22;10307;40.100;18.336;2022-11-20T00:40:18;19.60;99.90
20297;DHT22;10307;40.100;18.336;2022-11-20T00:42:44;19.60;99.90
20297;DHT22;10307;40.100;18.336;2022-11-20T00:45:10;19.60;99.90
20297;DHT22;10307;40.100;18.336;2022-11-20T00:47:37;19.60;99.90
20297;DHT22;10307;40.100;18.336;2022-11-20T00:50:03;19.60;99.90
20297;DHT22;10307;40.100;18.336;2022-11-20T00:52:29;19.60;99.90
20297;DHT22;10307;40.100;18.336;2022-11-20T00:54:56;19.60;99.90
20297;DHT22;10307;40.100;18.336;2022-11-20T00:57:22;19.50;99.90
20297;DHT22;10307;40.100;18.336;2022-11-20T00:59:48;19.60;99.90
20297;DHT22;10307;40.100;18.336;2022-11-20T01:02:14;19.60;99.90
20297;DHT22;10307;40.100;18.336;2022-11-20T01:04:42;19.50;99.90
20297;DHT22;10307;40.100;18.336;2022-11-20T01:07:08;19.60;99.90
20297;DHT22;10307;40.100;18.336;2022-11-20T01:09:35;19.60;99.90
20297;DHT22;10307;40.100;18.336;2022-11-20T01:12:01;19.60;99.90
20297;DHT22;10307;40.100;18.336;2022-11-20T01:14:27;19.60;99.90
20297;DHT22;10307;40.100;18.336;2022-11-20T01:16:53;19.60;99.90
20297;DHT22;10307;40.100;18.336;2022-11-20T01:19:22;19.70;99.90
20297;DHT22;10307;40.100;18.336;2022-11-20T01:21:51;19.70;99.90
20297;DHT22;10307;40.100;18.336;2022-11-20T01:24:19;19.70;99.90
20297;DHT22;10307;40.100;18.336;2022-11-20T01:26:48;19.70;99.90
20297;DHT22;10307;40.100;18.336;2022-11-20T01:29:22;19.60;99.90
20297;DHT22;10307;40.100;18.336;2022-11-20T01:31:49;19.60;99.90
20297;DHT22;10307;40.100;18.336;2022-11-20T01:34:17;19.60;99.90
20297;DHT22;10307;40.100;18.336;2022-11-20T01:36:45;19.60;99.90
20297;DHT22;10307;40.100;18.336;2022-11-20T01:39:22;19.60;99.90
20297;DHT22;10307;40.100;18.336;2022-11-20T01:41:50;19.50;99.90
20297;DHT22;10307;40.100;18.336;2022-11-20T01:44:59;19.50;99.90
20297;DHT22;10307;40.100;18.336;2022-11-20T01:47:32;19.50;99.90
20297;DHT22;10307;40.100;18.336;2022-11-20T01:50:05;19.40;99.90
20297;DHT22;10307;40.100;18.336;2022-11-20T01:52:45;19.40;99.90
20297;DHT22;10307;40.100;18.336;2022-11-20T01:55:28;19.40;99.90
20297;DHT22;10307;40.100;18.336;2022-11-20T01:57:58;19.40;99.90
20297;DHT22;10307;40.100;18.336;2022-11-20T02:03:11;19.40;99.90
20297;DHT22;10307;40.100;18.336;2022-11-20T02:08:26;19.30;99.90
20297;DHT22;10307;40.100;18.336;2022-11-20T02:10:52;19.30;99.90
20297;DHT22;10307;40.100;18.336;2022-11-20T02:13:19;19.30;99.90
20297;DHT22;10307;40.100;18.336;2022-11-20T02:16:04;19.30;99.90
20297;DHT22;10307;40.100;18.336;2022-11-20T02:18:31;19.30;99.90
20297;DHT22;10307;40.100;18.336;2022-11-20T02:21:10;19.30;99.90
20297;DHT22;10307;40.100;18.336;2022-11-20T02:26:23;19.20;99.90
20297;DHT22;10307;40.100;18.336;2022-11-20T02:28:50;19.30;99.90
20297;DHT22;10307;40.100;18.336;2022-11-20T02:31:16;19.20;99.90
20297;DHT22;10307;40.100;18.336;2022-11-20T02:33:42;19.30;99.90
20297;DHT22;10307;40.100;18.336;2022-11-20T02:36:11;19.30;99.90
20297;DHT22;10307;40.100;18.336;2022-11-20T02:38:40;19.20;99.90
20297;DHT22;10307;40.100;18.336;2022-11-20T02:41:07;19.20;99.90
20297;DHT22;10307;40.100;18.336;2022-11-20T02:43:33;19.30;99.90
20297;DHT22;10307;40.100;18.336;2022-11-20T02:45:59;19.30;99.90
20297;DHT22;10307;40.100;18.336;2022-11-20T02:48:26;19.20;99.90
20297;DHT22;10307;40.100;18.336;2022-11-20T02:50:52;19.30;99.90
20297;DHT22;10307;40.100;18.336;2022-11-20T02:53:18;19.30;99.90
20297;DHT22;10307;40.100;18.336;2022-11-20T02:55:45;19.20;99.90
20297;DHT22;10307;40.100;18.336;2022-11-20T02:58:12;19.20;99.90
20297;DHT22;10307;40.100;18.336;2022-11-20T03:00:38;19.20;99.90
20297;DHT22;10307;40.100;18.336;2022-11-20T03:03:04;19.20;99.90
20297;DHT22;10307;40.100;18.336;2022-11-20T03:05:30;19.20;99.90
20297;DHT22;10307;40.100;18.336;2022-11-20T03:07:57;19.20;99.90
20297;DHT22;10307;40.100;18.336;2022-11-20T03:10:23;19.20;99.90
20297;DHT22;10307;40.100;18.336;2022-11-20T03:12:56;19.20;99.90
20297;DHT22;10307;40.100;18.336;2022-11-20T03:15:23;19.30;99.90
20297;DHT22;10307;40.100;18.336;2022-11-20T03:17:53;19.30;99.90
20297;DHT22;10307;40.100;18.336;2022-11-20T03:20:21;19.30;99.90
20297;DHT22;10307;40.100;18.336;2022-11-20T03:22:48;19.30;99.90
20297;DHT22;10307;40.100;18.336;2022-11-20T03:25:14;19.30;99.90
20297;DHT22;10307;40.100;18.336;2022-11-20T03:27:40;19.30;99.90
20297;DHT22;10307;40.100;18.336;2022-11-20T03:30:07;19.10;99.90
20297;DHT22;10307;40.100;18.336;2022-11-20T03:32:33;18.50;99.90
20297;DHT22;10307;40.100;18.336;2022-11-20T03:34:59;18.10;99.90
20297;DHT22;10307;40.100;18.336;2022-11-20T03:37:26;17.90;99.90
20297;DHT22;10307;40.100;18.336;2022-11-20T03:39:52;17.70;99.90
20297;DHT22;10307;40.100;18.336;2022-11-20T03:42:18;17.50;99.90
20297;DHT22;10307;40.100;18.336;2022-11-20T03:45:04;17.50;99.90
20297;DHT22;10307;40.100;18.336;2022-11-20T03:47:30;17.40;99.90
20297;DHT22;10307;40.100;18.336;2022-11-20T03:49:57;17.30;99.90
20297;DHT22;10307;40.100;18.336;2022-11-20T03:52:23;17.30;99.90
20297;DHT22;10307;40.100;18.336;2022-11-20T03:54:49;17.20;99.90
20297;DHT22;10307;40.100;18.336;2022-11-20T03:57:15;17.20;99.90
20297;DHT22;10307;40.100;18.336;2022-11-20T03:59:42;17.20;99.90
20297;DHT22;10307;40.100;18.336;2022-11-20T04:02:08;17.20;99.90
20297;DHT22;10307;40.100;18.336;2022-11-20T04:04:34;17.20;99.90
20297;DHT22;10307;40.100;18.336;2022-11-20T04:07:00;17.20;99.90
20297;DHT22;10307;40.100;18.336;2022-11-20T04:09:27;17.30;99.90
20297;DHT22;10307;40.100;18.336;2022-11-20T04:11:53;17.30;99.90
20297;DHT22;10307;40.100;18.336;2022-11-20T04:14:19;17.30;99.90
20297;DHT22;10307;40.100;18.336;2022-11-20T04:16:45;17.40;99.90
20297;DHT22;10307;40.100;18.336;2022-11-20T04:19:14;17.40;99.90
20297;DHT22;10307;40.100;18.336;2022-11-20T04:21:41;17.40;99.90
20297;DHT22;10307;40.100;18.336;2022-11-20T04:24:08;17.50;99.90
20297;DHT22;10307;40.100;18.336;2022-11-20T04:26:34;17.50;99.90
20297;DHT22;10307;40.100;18.336;2022-11-20T04:29:01;17.60;99.90
20297;DHT22;10307;40.100;18.336;2022-11-20T04:31:32;17.70;99.90
20297;DHT22;10307;40.100;18.336;2022-11-20T04:34:00;18.00;99.90
20297;DHT22;10307;40.100;18.336;2022-11-20T04:36:28;18.30;99.90
20297;DHT22;10307;40.100;18.336;2022-11-20T04:38:57;18.50;99.90
20297;DHT22;10307;40.100;18.336;2022-11-20T04:41:26;18.70;99.90
20297;DHT22;10307;40.100;18.336;2022-11-20T04:43:56;18.80;99.90
20297;DHT22;10307;40.100;18.336;2022-11-20T04:46:25;18.90;99.90
20297;DHT22;10307;40.100;18.336;2022-11-20T04:48:52;19.00;99.90
20297;DHT22;10307;40.100;18.336;2022-11-20T04:51:19;19.00;99.90
20297;DHT22;10307;40.100;18.336;2022-11-20T04:53:45;19.00;99.90
20297;DHT22;10307;40.100;18.336;2022-11-20T04:56:12;19.10;99.90
20297;DHT22;10307;40.100;18.336;2022-11-20T04:58:39;19.10;99.90
20297;DHT22;10307;40.100;18.336;2022-11-20T05:01:14;19.10;99.90
20297;DHT22;10307;40.100;18.336;2022-11-20T05:03:42;19.10;99.90
20297;DHT22;10307;40.100;18.336;2022-11-20T05:06:10;19.10;99.90
20297;DHT22;10307;40.100;18.336;2022-11-20T05:08:38;19.10;99.90
20297;DHT22;10307;40.100;18.336;2022-11-20T05:11:07;19.00;99.90
20297;DHT22;10307;40.100;18.336;2022-11-20T05:13:34;18.90;99.90
20297;DHT22;10307;40.100;18.336;2022-11-20T05:16:04;18.70;99.90
20297;DHT22;10307;40.100;18.336;2022-11-20T05:18:31;18.70;99.90
20297;DHT22;10307;40.100;18.336;2022-11-20T05:20:58;18.60;99.90
20297;DHT22;10307;40.100;18.336;2022-11-20T05:23:25;18.50;99.90
20297;DHT22;10307;40.100;18.336;2022-11-20T05:25:53;18.50;99.90
20297;DHT22;10307;40.100;18.336;2022-11-20T05:28:20;18.40;99.90
20297;DHT22;10307;40.100;18.336;2022-11-20T05:30:47;18.40;99.90
20297;DHT22;10307;40.100;18.336;2022-11-20T05:33:14;18.40;99.90
20297;DHT22;10307;40.100;18.336;2022-11-20T05:35:41;18.40;99.90
20297;DHT22;10307;40.100;18.336;2022-11-20T05:38:07;18.40;99.90
20297;DHT22;10307;40.100;18.336;2022-11-20T05:40:34;18.40;99.90
20297;DHT22;10307;40.100;18.336;2022-11-20T05:43:01;18.30;99.90
20297;DHT22;10307;40.100;18.336;2022-11-20T05:45:27;18.30;99.90
20297;DHT22;10307;40.100;18.336;2022-11-20T05:47:57;18.30;99.90
20297;DHT22;10307;40.100;18.336;2022-11-20T05:50:23;18.30;99.90
20297;DHT22;10307;40.100;18.336;2022-11-20T05:52:49;18.30;99.90
20297;DHT22;10307;40.100;18.336;2022-11-20T05:55:16;18.30;99.90
20297;DHT22;10307;40.100;18.336;2022-11-20T05:57:42;18.40;99.90
20297;DHT22;10307;40.100;18.336;2022-11-20T06:00:09;18.40;99.90
20297;DHT22;10307;40.100;18.336;2022-11-20T06:02:35;18.40;99.90
20297;DHT22;10307;40.100;18.336;2022-11-20T06:05:02;18.40;99.90
20297;DHT22;10307;40.100;18.336;2022-11-20T06:07:28;18.40;99.90
20297;DHT22;10307;40.100;18.336;2022-11-20T06:09:54;18.40;99.90
20297;DHT22;10307;40.100;18.336;2022-11-20T06:12:21;18.40;99.90
20297;DHT22;10307;40.100;18.336;2022-11-20T06:14:47;18.40;99.90
20297;DHT22;10307;40.100;18.336;2022-11-20T06:17:13;18.40;99.90
20297;DHT22;10307;40.100;18.336;2022-11-20T06:19:39;18.40;99.90
20297;DHT22;10307;40.100;18.336;2022-11-20T06:22:06;18.40;99.90
20297;DHT22;10307;40.100;18.336;2022-11-20T06:24:32;18.40;99.90
20297;DHT22;10307;40.100;18.336;2022-11-20T06:26:58;18.40;99.90
20297;DHT22;10307;40.100;18.336;2022-11-20T06:29:24;18.40;99.90
20297;DHT22;10307;40.100;18.336;2022-11-20T06:31:50;18.50;99.90
20297;DHT22;10307;40.100;18.336;2022-11-20T06:34:17;18.50;99.90
20297;DHT22;10307;40.100;18.336;2022-11-20T06:36:43;18.40;99.90
20297;DHT22;10307;40.100;18.336;2022-11-20T06:39:09;18.50;99.90
20297;DHT22;10307;40.100;18.336;2022-11-20T06:41:35;18.50;99.90
20297;DHT22;10307;40.100;18.336;2022-11-20T06:44:04;18.50;99.90
20297;DHT22;10307;40.100;18.336;2022-11-20T06:46:31;18.50;99.90
20297;DHT22;10307;40.100;18.336;2022-11-20T06:48:57;18.60;99.90
20297;DHT22;10307;40.100;18.336;2022-11-20T06:51:24;18.60;99.90
20297;DHT22;10307;40.100;18.336;2022-11-20T06:53:50;18.60;99.90
20297;DHT22;10307;40.100;18.336;2022-11-20T06:56:16;18.60;99.90
20297;DHT22;10307;40.100;18.336;2022-11-20T06:58:42;18.60;99.90
20297;DHT22;10307;40.100;18.336;2022-11-20T07:01:11;18.60;99.90
20297;DHT22;10307;40.100;18.336;2022-11-20T07:03:38;18.60;99.90
20297;DHT22;10307;40.100;18.336;2022-11-20T07:06:05;18.70;99.90
20297;DHT22;10307;40.100;18.336;2022-11-20T07:08:32;18.70;99.90
20297;DHT22;10307;40.100;18.336;2022-11-20T07:11:00;18.70;99.90
20297;DHT22;10307;40.100;18.336;2022-11-20T07:13:27;18.70;99.90
20297;DHT22;10307;40.100;18.336;2022-11-20T07:15:54;18.70;99.90
20297;DHT22;10307;40.100;18.336;2022-11-20T07:18:21;18.70;99.90
20297;DHT22;10307;40.100;18.336;2022-11-20T07:20:47;18.70;99.90
20297;DHT22;10307;40.100;18.336;2022-11-20T07:23:13;18.70;99.90
20297;DHT22;10307;40.100;18.336;2022-11-20T07:25:40;18.70;99.90
20297;DHT22;10307;40.100;18.336;2022-11-20T07:28:06;18.70;99.90
20297;DHT22;10307;40.100;18.336;2022-11-20T07:30:32;18.70;99.90
20297;DHT22;10307;40.100;18.336;2022-11-20T07:32:58;18.80;99.90
20297;DHT22;10307;40.100;18.336;2022-11-20T07:35:25;18.80;99.90
20297;DHT22;10307;40.100;18.336;2022-11-20T07:37:51;18.80;99.90
20297;DHT22;10307;40.100;18.336;2022-11-20T07:40:18;18.80;99.90
20297;DHT22;10307;40.100;18.336;2022-11-20T07:42:53;18.80;99.90
20297;DHT22;10307;40.100;18.336;2022-11-20T07:45:21;18.80;99.90
20297;DHT22;10307;40.100;18.336;2022-11-20T07:47:48;18.80;99.90
20297;DHT22;10307;40.100;18.336;2022-11-20T07:50:14;18.80;99.90
20297;DHT22;10307;40.100;18.336;2022-11-20T07:52:41;18.80;99.90
20297;DHT22;10307;40.100;18.336;2022-11-20T07:55:08;18.80;99.90
20297;DHT22;10307;40.100;18.336;2022-11-20T07:57:35;18.90;99.90
20297;DHT22;10307;40.100;18.336;2022-11-20T08:00:05;18.80;99.90
20297;DHT22;10307;40.100;18.336;2022-11-20T08:02:39;18.80;99.90
20297;DHT22;10307;40.100;18.336;2022-11-20T08:05:07;18.80;99.90
20297;DHT22;10307;40.100;18.336;2022-11-20T08:07:42;18.80;99.90
20297;DHT22;10307;40.100;18.336;2022-11-20T08:10:11;18.80;99.90
20297;DHT22;10307;40.100;18.336;2022-11-20T08:12:48;18.80;99.90
20297;DHT22;10307;40.100;18.336;2022-11-20T08:15:34;18.80;99.90
20297;DHT22;10307;40.100;18.336;2022-11-20T08:18:03;18.80;99.90
20297;DHT22;10307;40.100;18.336;2022-11-20T08:20:30;18.80;99.90
20297;DHT22;10307;40.100;18.336;2022-11-20T08:23:00;18.80;99.90
20297;DHT22;10307;40.100;18.336;2022-11-20T08:25:28;18.70;99.90
20297;DHT22;10307;40.100;18.336;2022-11-20T08:27:58;18.70;99.90
20297;DHT22;10307;40.100;18.336;2022-11-20T08:30:24;18.70;99.90
20297;DHT22;10307;40.100;18.336;2022-11-20T08:32:51;18.70;99.90
20297;DHT22;10307;40.100;18.336;2022-11-20T08:35:18;18.70;99.90
20297;DHT22;10307;40.100;18.336;2022-11-20T08:37:47;18.70;99.90
20297;DHT22;10307;40.100;18.336;2022-11-20T08:40:14;18.70;99.90
20297;DHT22;10307;40.100;18.336;2022-11-20T08:42:50;18.70;99.90
20297;DHT22;10307;40.100;18.336;2022-11-20T08:45:18;18.60;99.90
20297;DHT22;10307;40.100;18.336;2022-11-20T08:47:45;18.70;99.90
20297;DHT22;10307;40.100;18.336;2022-11-20T08:50:14;18.70;99.90
20297;DHT22;10307;40.100;18.336;2022-11-20T08:52:40;18.70;99.90
20297;DHT22;10307;40.100;18.336;2022-11-20T08:55:08;18.70;99.90
20297;DHT22;10307;40.100;18.336;2022-11-20T08:57:35;18.60;99.90
20297;DHT22;10307;40.100;18.336;2022-11-20T09:00:04;18.60;99.90
20297;DHT22;10307;40.100;18.336;2022-11-20T09:02:30;18.70;99.90
20297;DHT22;10307;40.100;18.336;2022-11-20T09:04:58;18.80;99.90
20297;DHT22;10307;40.100;18.336;2022-11-20T09:07:24;18.90;99.90
20297;DHT22;10307;40.100;18.336;2022-11-20T09:09:50;18.90;99.90
20297;DHT22;10307;40.100;18.336;2022-11-20T09:12:17;18.90;99.90
20297;DHT22;10307;40.100;18.336;2022-11-20T09:14:43;19.00;99.90
20297;DHT22;10307;40.100;18.336;2022-11-20T09:17:12;19.00;99.90
20297;DHT22;10307;40.100;18.336;2022-11-20T09:19:41;19.20;99.90
20297;DHT22;10307;40.100;18.336;2022-11-20T09:22:07;19.30;99.90
20297;DHT22;10307;40.100;18.336;2022-11-20T09:24:55;19.40;99.90
20297;DHT22;10307;40.100;18.336;2022-11-20T09:27:27;19.40;99.90
20297;DHT22;10307;40.100;18.336;2022-11-20T09:29:54;19.40;99.90
20297;DHT22;10307;40.100;18.336;2022-11-20T09:32:20;19.50;99.90
20297;DHT22;10307;40.100;18.336;2022-11-20T09:34:46;19.50;99.90
20297;DHT22;10307;40.100;18.336;2022-11-20T09:37:13;19.60;99.90
20297;DHT22;10307;40.100;18.336;2022-11-20T09:39:39;19.60;99.90
20297;DHT22;10307;40.100;18.336;2022-11-20T09:42:27;19.70;99.90
20297;DHT22;10307;40.100;18.336;2022-11-20T09:55:49;19.80;99.90
20297;DHT22;10307;40.100;18.336;2022-11-20T09:58:28;19.80;99.90
20297;DHT22;10307;40.100;18.336;2022-11-20T10:01:03;19.80;99.90
20297;DHT22;10307;40.100;18.336;2022-11-20T10:09:43;20.00;99.90
20297;DHT22;10307;40.100;18.336;2022-11-20T10:15:30;20.20;99.90
20297;DHT22;10307;40.100;18.336;2022-11-20T10:21:08;20.50;99.90
20297;DHT22;10307;40.100;18.336;2022-11-20T10:23:58;20.50;99.90
20297;DHT22;10307;40.100;18.336;2022-11-20T10:29:15;20.50;99.90
20297;DHT22;10307;40.100;18.336;2022-11-20T10:31:47;20.50;99.90
20297;DHT22;10307;40.100;18.336;2022-11-20T10:34:23;20.40;99.90
20297;DHT22;10307;40.100;18.336;2022-11-20T10:36:59;20.50;99.90
20297;DHT22;10307;40.100;18.336;2022-11-20T10:45:53;20.60;99.90
20297;DHT22;10307;40.100;18.336;2022-11-20T10:48:26;20.70;99.90
20297;DHT22;10307;40.100;18.336;2022-11-20T10:56:40;20.60;99.90
20297;DHT22;10307;40.100;18.336;2022-11-20T11:02:21;20.50;99.90
20297;DHT22;10307;40.100;18.336;2022-11-20T11:04:50;20.50;99.90
20297;DHT22;10307;40.100;18.336;2022-11-20T11:07:23;20.50;99.90
20297;DHT22;10307;40.100;18.336;2022-11-20T11:09:56;20.40;99.90
20297;DHT22;10307;40.100;18.336;2022-11-20T11:12:24;20.60;99.90
20297;DHT22;10307;40.100;18.336;2022-11-20T11:14:53;20.60;99.90
20297;DHT22;10307;40.100;18.336;2022-11-20T11:20:16;20.50;99.90
20297;DHT22;10307;40.100;18.336;2022-11-20T11:22:48;20.50;99.90
20297;DHT22;10307;40.100;18.336;2022-11-20T11:25:25;20.30;99.90
20297;DHT22;10307;40.100;18.336;2022-11-20T11:27:54;20.30;99.90
20297;DHT22;10307;40.100;18.336;2022-11-20T11:30:23;20.20;99.90
20297;DHT22;10307;40.100;18.336;2022-11-20T11:32:51;20.20;99.90
20297;DHT22;10307;40.100;18.336;2022-11-20T11:35:28;20.10;99.90
20297;DHT22;10307;40.100;18.336;2022-11-20T11:38:06;20.10;99.90
20297;DHT22;10307;40.100;18.336;2022-11-20T11:40:39;20.00;99.90
20297;DHT22;10307;40.100;18.336;2022-11-20T11:43:16;20.00;99.90
20297;DHT22;10307;40.100;18.336;2022-11-20T11:46:05;19.90;99.90
20297;DHT22;10307;40.100;18.336;2022-11-20T11:48:35;19.90;99.90
20297;DHT22;10307;40.100;18.336;2022-11-20T11:51:01;19.80;99.90
20297;DHT22;10307;40.100;18.336;2022-11-20T11:53:28;19.80;99.90
20297;DHT22;10307;40.100;18.336;2022-11-20T11:56:08;19.70;99.90
20297;DHT22;10307;40.100;18.336;2022-11-20T11:58:44;19.70;99.90
20297;DHT22;10307;40.100;18.336;2022-11-20T12:01:28;19.70;99.90
20297;DHT22;10307;40.100;18.336;2022-11-20T12:06:58;19.60;99.90
20297;DHT22;10307;40.100;18.336;2022-11-20T12:09:37;19.50;99.90
20297;DHT22;10307;40.100;18.336;2022-11-20T12:12:27;19.50;99.90
20297;DHT22;10307;40.100;18.336;2022-11-20T12:14:55;19.40;99.90
20297;DHT22;10307;40.100;18.336;2022-11-20T12:17:23;19.30;99.90
20297;DHT22;10307;40.100;18.336;2022-11-20T12:19:50;19.20;99.90
20297;DHT22;10307;40.100;18.336;2022-11-20T12:25:22;19.00;99.90
20297;DHT22;10307;40.100;18.336;2022-11-20T12:36:24;18.60;99.90
20297;DHT22;10307;40.100;18.336;2022-11-20T12:42:06;18.40;99.90
20297;DHT22;10307;40.100;18.336;2022-11-20T13:22:43;16.70;99.90
20297;DHT22;10307;40.100;18.336;2022-11-20T13:27:53;16.70;99.90
20297;DHT22;10307;40.100;18.336;2022-11-20T13:30:25;16.70;99.90
20297;DHT22;10307;40.100;18.336;2022-11-20T13:32:53;16.80;99.90
20297;DHT22;10307;40.100;18.336;2022-11-20T13:35:37;16.70;99.90
20297;DHT22;10307;40.100;18.336;2022-11-20T13:38:09;16.70;99.90
20297;DHT22;10307;40.100;18.336;2022-11-20T13:40:39;16.70;99.90
20297;DHT22;10307;40.100;18.336;2022-11-20T13:43:32;16.60;99.90
20297;DHT22;10307;40.100;18.336;2022-11-20T13:46:06;16.60;99.90
20297;DHT22;10307;40.100;18.336;2022-11-20T13:48:53;16.60;99.90
20297;DHT22;10307;40.100;18.336;2022-11-20T13:51:37;16.60;99.90
20297;DHT22;10307;40.100;18.336;2022-11-20T13:59:34;16.50;99.90
20297;DHT22;10307;40.100;18.336;2022-11-20T14:02:16;16.50;99.90
20297;DHT22;10307;40.100;18.336;2022-11-20T14:04:48;16.50;99.90
20297;DHT22;10307;40.100;18.336;2022-11-20T14:07:17;16.50;99.90
20297;DHT22;10307;40.100;18.336;2022-11-20T14:09:55;16.50;99.90
20297;DHT22;10307;40.100;18.336;2022-11-20T14:12:30;16.50;99.90
20297;DHT22;10307;40.100;18.336;2022-11-20T14:14:57;16.50;99.90
20297;DHT22;10307;40.100;18.336;2022-11-20T14:17:31;16.40;99.90
20297;DHT22;10307;40.100;18.336;2022-11-20T14:20:12;16.40;99.90
20297;DHT22;10307;40.100;18.336;2022-11-20T14:22:52;16.40;99.90
20297;DHT22;10307;40.100;18.336;2022-11-20T14:25:24;16.40;99.90
20297;DHT22;10307;40.100;18.336;2022-11-20T14:27:54;16.40;99.90
20297;DHT22;10307;40.100;18.336;2022-11-20T14:30:26;16.40;99.90
20297;DHT22;10307;40.100;18.336;2022-11-20T14:32:56;16.40;99.90
20297;DHT22;10307;40.100;18.336;2022-11-20T14:35:29;16.40;99.90
20297;DHT22;10307;40.100;18.336;2022-11-20T14:37:56;16.50;99.90
20297;DHT22;10307;40.100;18.336;2022-11-20T14:40:30;16.50;99.90
20297;DHT22;10307;40.100;18.336;2022-11-20T14:42:59;16.50;99.90
20297;DHT22;10307;40.100;18.336;2022-11-20T14:45:26;16.60;99.90
20297;DHT22;10307;40.100;18.336;2022-11-20T14:47:55;16.60;99.90
20297;DHT22;10307;40.100;18.336;2022-11-20T14:50:24;16.60;99.90
20297;DHT22;10307;40.100;18.336;2022-11-20T14:52:57;16.60;99.90
20297;DHT22;10307;40.100;18.336;2022-11-20T14:55:35;16.60;99.90
20297;DHT22;10307;40.100;18.336;2022-11-20T14:58:18;16.60;99.90
20297;DHT22;10307;40.100;18.336;2022-11-20T15:00:57;16.60;99.90
20297;DHT22;10307;40.100;18.336;2022-11-20T15:03:32;16.60;99.90
20297;DHT22;10307;40.100;18.336;2022-11-20T15:05:58;16.50;99.90
20297;DHT22;10307;40.100;18.336;2022-11-20T15:08:25;16.50;99.90
20297;DHT22;10307;40.100;18.336;2022-11-20T15:10:53;16.50;99.90
20297;DHT22;10307;40.100;18.336;2022-11-20T15:13:37;16.50;99.90
20297;DHT22;10307;40.100;18.336;2022-11-20T15:16:20;16.40;99.90
20297;DHT22;10307;40.100;18.336;2022-11-20T15:18:47;16.40;99.90
20297;DHT22;10307;40.100;18.336;2022-11-20T15:21:18;16.30;99.90
20297;DHT22;10307;40.100;18.336;2022-11-20T15:23:45;16.40;99.90
20297;DHT22;10307;40.100;18.336;2022-11-20T15:26:15;16.30;99.90
20297;DHT22;10307;40.100;18.336;2022-11-20T15:28:44;16.20;99.90
20297;DHT22;10307;40.100;18.336;2022-11-20T15:31:15;16.20;99.90
20297;DHT22;10307;40.100;18.336;2022-11-20T15:33:42;16.10;99.90
20297;DHT22;10307;40.100;18.336;2022-11-20T15:36:09;16.10;99.90
20297;DHT22;10307;40.100;18.336;2022-11-20T15:38:36;16.10;99.90
20297;DHT22;10307;40.100;18.336;2022-11-20T15:41:04;16.10;99.90
20297;DHT22;10307;40.100;18.336;2022-11-20T15:43:31;16.10;99.90
20297;DHT22;10307;40.100;18.336;2022-11-20T15:46:01;16.10;99.90
20297;DHT22;10307;40.100;18.336;2022-11-20T15:48:36;16.10;99.90
20297;DHT22;10307;40.100;18.336;2022-11-20T15:53:48;16.00;99.90
20297;DHT22;10307;40.100;18.336;2022-11-20T15:56:14;16.10;99.90
20297;DHT22;10307;40.100;18.336;2022-11-20T15:58:41;16.10;99.90
20297;DHT22;10307;40.100;18.336;2022-11-20T16:01:12;16.10;99.90
20297;DHT22;10307;40.100;18.336;2022-11-20T16:03:39;16.10;99.90
20297;DHT22;10307;40.100;18.336;2022-11-20T16:06:06;16.10;99.90
20297;DHT22;10307;40.100;18.336;2022-11-20T16:08:32;16.10;99.90
20297;DHT22;10307;40.100;18.336;2022-11-20T16:10:59;16.10;99.90
20297;DHT22;10307;40.100;18.336;2022-11-20T16:13:25;16.10;99.90
20297;DHT22;10307;40.100;18.336;2022-11-20T16:16:23;16.10;99.90
20297;DHT22;10307;40.100;18.336;2022-11-20T16:18:50;16.10;99.90
20297;DHT22;10307;40.100;18.336;2022-11-20T16:21:16;16.10;99.90
20297;DHT22;10307;40.100;18.336;2022-11-20T16:23:43;16.00;99.90
20297;DHT22;10307;40.100;18.336;2022-11-20T16:26:14;16.00;99.90
20297;DHT22;10307;40.100;18.336;2022-11-20T16:28:41;16.00;99.90
20297;DHT22;10307;40.100;18.336;2022-11-20T16:31:09;16.00;99.90
20297;DHT22;10307;40.100;18.336;2022-11-20T16:33:36;16.00;99.90
20297;DHT22;10307;40.100;18.336;2022-11-20T16:36:09;16.00;99.90
20297;DHT22;10307;40.100;18.336;2022-11-20T16:38:36;16.00;99.90
20297;DHT22;10307;40.100;18.336;2022-11-20T16:41:03;15.90;99.90
20297;DHT22;10307;40.100;18.336;2022-11-20T16:43:29;15.90;99.90
20297;DHT22;10307;40.100;18.336;2022-11-20T16:45:56;15.90;99.90
20297;DHT22;10307;40.100;18.336;2022-11-20T16:48:23;15.80;99.90
20297;DHT22;10307;40.100;18.336;2022-11-20T16:50:51;15.80;99.90
20297;DHT22;10307;40.100;18.336;2022-11-20T16:53:19;15.80;99.90
20297;DHT22;10307;40.100;18.336;2022-11-20T16:55:46;15.80;99.90
20297;DHT22;10307;40.100;18.336;2022-11-20T16:58:13;15.80;99.90
20297;DHT22;10307;40.100;18.336;2022-11-20T17:00:40;15.80;99.90
20297;DHT22;10307;40.100;18.336;2022-11-20T17:03:07;15.80;99.90
20297;DHT22;10307;40.100;18.336;2022-11-20T17:05:34;15.70;99.90
20297;DHT22;10307;40.100;18.336;2022-11-20T17:08:01;15.70;99.90
20297;DHT22;10307;40.100;18.336;2022-11-20T17:10:31;15.70;99.90
20297;DHT22;10307;40.100;18.336;2022-11-20T17:12:58;15.60;99.90
20297;DHT22;10307;40.100;18.336;2022-11-20T17:15:24;15.60;99.90
20297;DHT22;10307;40.100;18.336;2022-11-20T17:17:51;15.60;99.90
20297;DHT22;10307;40.100;18.336;2022-11-20T17:20:17;15.60;99.90
20297;DHT22;10307;40.100;18.336;2022-11-20T17:22:44;15.60;99.90
20297;DHT22;10307;40.100;18.336;2022-11-20T17:25:10;15.60;99.90
20297;DHT22;10307;40.100;18.336;2022-11-20T17:27:36;15.60;99.90